Terminal Aerodrome Forecast
Issued by NWS Albany, NY

Home | Current Version | Previous Version | Text Only | Print | Product List | Glossary On
Versions: 1 2 3 4 5 6 7 8 9 10 11 12 13 14 15 16 17 18 19 20 21 22
000
FTUS41 KALY 281955 AAB
TAFALB
TAF AMD
KALB 281955Z 2820/2918 30019G30KT P6SM FEW070 BKN270
     FM290100 30006KT P6SM SKC
     FM290800 VRB02KT 3SM BR SCT002
     FM291400 VRB06KT P6SM SCT035=

USA.gov is the U.S. government's official web portal to all federal, state and local government web resources and services.